マレ の空港の天気 - METARとTAF

マレ国際空港 ( VRMM / MLE ) - モルディブ Hulhule Island, North Male Atoll
飛行場実況気象(Metar)
観測時間10/19 04:00 MVT (10/18 23:00 UTC)
風向・風速西 8m/s
視程10km以上
天気現象
少しの雲 雲底高度 550m
全天の8割程度の雲 雲底高度 8530m
気温29℃
湿度79%
気圧1008hPa
METARVRMM 182300Z 28015KT 9999 FEW018TCU BKN280 29/25 Q1008 NOSIG
過去の天気等 Google飛行場航空写真 Wunderground天気予報

過去48時間のMETAR

飛行場予報(TAF)
発表時間: 10/19 04:00 MVT (10/18 23:00 UTC)
予報対象時間: 19日5時 MVT ~ 20日11時 MVT
風向・風速西 7m/s
視程10km以上
少しの雲 雲底高度 550m
19日5時 MVT ~ 19日11時 MVT に一時的に
少しの積乱雲 雲底高度 580m
TAF VRMM 182300Z 1900/2006 27014KT 9999 FEW018
TEMPO 1900/1906 FEW019CB